createdAt,value
2018-06-07T00:02:15.573Z,16.70
2018-06-07T00:04:44.765Z,16.60
2018-06-07T00:07:13.868Z,16.60
2018-06-07T00:09:42.941Z,16.60
2018-06-07T00:12:12.033Z,16.50
2018-06-07T00:14:41.116Z,16.40
2018-06-07T00:17:10.219Z,16.40
2018-06-07T00:19:39.327Z,16.30
2018-06-07T00:22:08.567Z,16.30
2018-06-07T00:24:37.629Z,16.30
2018-06-07T00:27:06.748Z,16.30
2018-06-07T00:29:35.869Z,16.30
2018-06-07T00:32:05.000Z,16.20
2018-06-07T00:34:34.090Z,16.20
2018-06-07T00:37:03.212Z,16.20
2018-06-07T00:39:32.331Z,16.10
2018-06-07T00:42:01.514Z,16.10
2018-06-07T00:44:30.672Z,16.00
2018-06-07T00:46:59.814Z,16.00
2018-06-07T00:49:28.964Z,16.00
2018-06-07T00:51:58.129Z,15.90
2018-06-07T00:54:27.232Z,15.90
2018-06-07T00:57:07.271Z,15.80
2018-06-07T00:59:36.409Z,15.80
2018-06-07T01:02:05.583Z,15.80
2018-06-07T01:04:34.849Z,15.80
2018-06-07T01:07:03.965Z,15.70
2018-06-07T01:09:33.088Z,15.70
2018-06-07T01:12:02.256Z,15.60
2018-06-07T01:14:31.345Z,15.60
2018-06-07T01:17:00.500Z,15.60
2018-06-07T01:19:29.615Z,15.60
2018-06-07T01:21:58.977Z,15.50
2018-06-07T01:24:28.084Z,15.50
2018-06-07T01:26:57.196Z,15.50
2018-06-07T01:29:43.286Z,15.40
2018-06-07T01:32:40.187Z,15.40
2018-06-07T01:35:09.310Z,15.40
2018-06-07T01:37:40.255Z,15.30
2018-06-07T01:40:09.373Z,15.30
2018-06-07T01:42:38.480Z,15.20
2018-06-07T01:45:07.589Z,15.20
2018-06-07T01:47:36.704Z,15.20
2018-06-07T01:50:05.971Z,15.20
2018-06-07T01:52:35.169Z,15.10
2018-06-07T01:55:04.308Z,15.10
2018-06-07T01:57:34.524Z,15.00
2018-06-07T02:00:03.664Z,15.10
2018-06-07T02:02:32.791Z,15.00
2018-06-07T02:05:01.881Z,15.00
2018-06-07T02:07:31.020Z,15.00
2018-06-07T02:10:00.094Z,15.00
2018-06-07T02:12:29.224Z,15.00
2018-06-07T02:14:58.338Z,14.90
2018-06-07T02:17:27.448Z,14.90
2018-06-07T02:19:56.634Z,14.80
2018-06-07T02:22:25.749Z,14.80
2018-06-07T02:24:54.918Z,14.80
2018-06-07T02:27:24.026Z,14.70
2018-06-07T02:29:53.377Z,14.80
2018-06-07T02:32:22.507Z,14.70
2018-06-07T02:34:51.666Z,14.70
2018-06-07T02:37:20.839Z,14.60
2018-06-07T02:39:49.980Z,14.60
2018-06-07T02:42:19.123Z,14.60
2018-06-07T02:44:48.263Z,14.50
2018-06-07T02:47:17.464Z,14.50
2018-06-07T02:49:46.603Z,14.50
2018-06-07T02:52:16.054Z,14.50
2018-06-07T02:54:45.228Z,14.50
2018-06-07T02:57:14.384Z,14.40
2018-06-07T02:59:43.476Z,14.40
2018-06-07T03:02:12.679Z,14.30
2018-06-07T03:04:41.752Z,14.40
2018-06-07T03:07:10.900Z,14.40
2018-06-07T03:09:39.971Z,14.40
2018-06-07T03:12:09.112Z,14.40
2018-06-07T03:14:38.201Z,14.40
2018-06-07T03:17:07.367Z,14.30
2018-06-07T03:19:36.456Z,14.40
2018-06-07T03:22:05.573Z,14.40
2018-06-07T03:24:34.650Z,14.30
2018-06-07T03:27:03.823Z,14.30
2018-06-07T03:29:32.913Z,14.30
2018-06-07T03:32:02.003Z,14.40
2018-06-07T03:34:31.173Z,14.40
2018-06-07T03:37:00.505Z,14.50
2018-06-07T03:39:29.602Z,14.60
2018-06-07T03:41:58.733Z,14.70
2018-06-07T03:44:27.843Z,14.70
2018-06-07T03:46:57.067Z,14.70
2018-06-07T03:49:26.248Z,14.70
2018-06-07T03:51:55.424Z,14.60
2018-06-07T03:54:24.551Z,14.60
2018-06-07T03:56:53.693Z,14.50
2018-06-07T03:59:22.823Z,14.50
2018-06-07T04:01:51.955Z,14.50
2018-06-07T04:04:21.012Z,14.50
2018-06-07T04:06:50.252Z,14.50
2018-06-07T04:09:19.386Z,14.50
2018-06-07T04:11:48.521Z,14.60
2018-06-07T04:14:17.712Z,14.60
2018-06-07T04:16:46.812Z,14.60
2018-06-07T04:19:15.960Z,14.60
2018-06-07T04:21:45.137Z,14.70
2018-06-07T04:24:14.260Z,14.70
2018-06-07T04:26:43.386Z,14.70
2018-06-07T04:29:12.801Z,14.80
2018-06-07T04:31:42.977Z,14.80
2018-06-07T04:34:12.464Z,14.80
2018-06-07T04:36:41.876Z,14.80
2018-06-07T04:39:11.363Z,14.90
2018-06-07T04:41:40.526Z,14.90
2018-06-07T04:44:09.608Z,15.00
2018-06-07T04:46:39.357Z,15.00
2018-06-07T04:49:08.464Z,15.10
2018-06-07T04:51:37.689Z,15.10
2018-06-07T04:54:07.173Z,15.10
2018-06-07T04:56:36.404Z,15.20
2018-06-07T04:59:05.681Z,15.20
2018-06-07T05:01:34.851Z,15.20
2018-06-07T05:04:03.996Z,15.30
2018-06-07T05:06:33.207Z,15.30
2018-06-07T05:09:02.389Z,15.40
2018-06-07T05:11:31.482Z,15.40
2018-06-07T05:14:00.576Z,15.40
2018-06-07T05:16:29.640Z,15.50
2018-06-07T05:18:58.749Z,15.60
2018-06-07T05:21:27.881Z,15.70
2018-06-07T05:23:56.976Z,15.80
2018-06-07T05:26:26.053Z,15.80
2018-06-07T05:28:55.237Z,16.00
2018-06-07T05:31:24.354Z,16.30
2018-06-07T05:33:56.352Z,17.00
2018-06-07T05:36:25.487Z,17.70
2018-06-07T05:38:55.730Z,18.30
2018-06-07T05:41:24.873Z,18.60
2018-06-07T05:43:54.814Z,18.80
2018-06-07T05:46:24.711Z,19.00
2018-06-07T05:48:53.951Z,19.20
2018-06-07T05:51:24.059Z,19.50
2018-06-07T05:53:53.353Z,20.00
2018-06-07T05:56:22.589Z,20.20
2018-06-07T05:58:51.688Z,20.50
2018-06-07T06:01:20.990Z,20.70
2018-06-07T06:03:50.160Z,20.50
2018-06-07T06:06:20.074Z,20.70
2018-06-07T06:08:49.397Z,20.80
2018-06-07T06:11:18.683Z,20.80
2018-06-07T06:13:48.378Z,21.30
2018-06-07T06:16:17.568Z,21.40
2018-06-07T06:18:46.853Z,21.50
2018-06-07T06:21:16.099Z,21.30
2018-06-07T06:23:45.294Z,21.60
2018-06-07T06:26:14.516Z,21.50
2018-06-07T06:28:43.655Z,21.30
2018-06-07T06:31:12.817Z,21.10
2018-06-07T06:33:42.200Z,21.40
2018-06-07T06:36:11.761Z,21.50
2018-06-07T06:38:44.775Z,21.60
2018-06-07T06:41:13.990Z,21.50
2018-06-07T06:43:43.198Z,21.30
2018-06-07T06:46:12.330Z,20.70
2018-06-07T06:48:41.451Z,20.30
2018-06-07T06:51:10.703Z,20.00
2018-06-07T06:53:39.860Z,19.80
2018-06-07T06:56:09.087Z,19.50
2018-06-07T06:58:38.231Z,19.20
2018-06-07T07:01:07.561Z,19.20
2018-06-07T07:03:37.661Z,19.10
2018-06-07T07:06:07.044Z,19.00
2018-06-07T07:08:36.255Z,19.00
2018-06-07T07:11:06.360Z,19.00
2018-06-07T07:13:35.546Z,18.90
2018-06-07T07:16:04.781Z,18.90
2018-06-07T07:18:34.104Z,19.00
2018-06-07T07:21:03.324Z,19.00
2018-06-07T07:23:32.482Z,19.00
2018-06-07T07:26:02.074Z,19.00
2018-06-07T07:28:32.443Z,19.10
2018-06-07T07:31:01.643Z,19.20
2018-06-07T07:33:31.075Z,19.30
2018-06-07T07:36:00.742Z,19.40
2018-06-07T07:38:30.089Z,19.30
2018-06-07T07:40:59.327Z,19.40
2018-06-07T07:43:28.435Z,19.50
2018-06-07T07:45:57.648Z,19.50
2018-06-07T07:48:26.861Z,19.60
2018-06-07T07:50:55.958Z,19.70
2018-06-07T07:53:25.169Z,19.80
2018-06-07T07:55:54.493Z,19.90
2018-06-07T07:58:23.623Z,19.90
2018-06-07T08:00:53.347Z,19.90
2018-06-07T08:03:22.616Z,20.10
2018-06-07T08:05:51.745Z,20.20
2018-06-07T08:08:21.078Z,20.30
2018-06-07T08:10:50.314Z,20.40
2018-06-07T08:13:19.396Z,20.40
2018-06-07T08:15:48.936Z,20.50
2018-06-07T08:18:18.250Z,20.70
2018-06-07T08:20:47.504Z,20.80
2018-06-07T08:23:16.707Z,20.90
2018-06-07T08:25:45.970Z,21.00
2018-06-07T08:28:15.139Z,21.10
2018-06-07T08:30:44.393Z,21.10
2018-06-07T08:33:14.211Z,21.20
2018-06-07T08:35:43.648Z,21.20
2018-06-07T08:38:13.367Z,21.40
2018-06-07T08:40:42.697Z,21.40
2018-06-07T08:43:12.162Z,21.50
2018-06-07T08:45:41.542Z,21.50
2018-06-07T08:48:11.738Z,21.50
2018-06-07T08:50:41.079Z,21.60
2018-06-07T08:53:10.274Z,21.60
2018-06-07T08:55:39.407Z,21.70
2018-06-07T08:58:08.836Z,21.80
2018-06-07T09:00:37.997Z,22.00
2018-06-07T09:03:07.312Z,22.00
2018-06-07T09:05:36.497Z,22.10
2018-06-07T09:08:05.775Z,22.20
2018-06-07T09:10:34.904Z,22.40
2018-06-07T09:13:04.023Z,22.50
2018-06-07T09:15:33.097Z,22.60
2018-06-07T09:18:02.282Z,22.70
2018-06-07T09:20:31.473Z,22.60
2018-06-07T09:23:00.719Z,22.60
2018-06-07T09:25:30.062Z,22.60
2018-06-07T09:27:59.281Z,22.60
2018-06-07T09:30:28.422Z,22.80
2018-06-07T09:32:57.726Z,22.90
2018-06-07T09:35:27.064Z,23.00
2018-06-07T09:37:56.181Z,23.10
2018-06-07T09:40:25.723Z,23.20
2018-06-07T09:42:55.000Z,23.20
2018-06-07T09:45:24.174Z,23.30
2018-06-07T09:47:53.580Z,23.30
2018-06-07T09:50:23.599Z,23.30
2018-06-07T09:52:53.711Z,23.40
2018-06-07T09:55:22.830Z,23.60
2018-06-07T09:57:52.178Z,23.70
2018-06-07T10:00:28.245Z,23.80
2018-06-07T10:02:57.477Z,23.60
2018-06-07T10:05:27.041Z,23.60
2018-06-07T10:07:56.439Z,23.70
2018-06-07T10:10:25.645Z,23.90
2018-06-07T10:12:54.861Z,23.90
2018-06-07T10:15:24.166Z,24.10
2018-06-07T10:17:53.399Z,24.20
2018-06-07T10:20:23.130Z,24.20
2018-06-07T10:22:52.662Z,24.30
2018-06-07T10:25:22.043Z,24.40
2018-06-07T10:27:52.165Z,24.50
2018-06-07T10:30:21.327Z,24.50
2018-06-07T10:32:50.599Z,24.50
2018-06-07T10:35:19.856Z,24.60
2018-06-07T10:37:48.989Z,24.70
2018-06-07T10:40:18.118Z,24.80
2018-06-07T10:42:47.284Z,24.80
2018-06-07T10:45:16.456Z,24.90
2018-06-07T10:47:45.656Z,24.90
2018-06-07T10:50:14.874Z,25.00
2018-06-07T10:52:44.027Z,24.90
2018-06-07T10:55:13.155Z,24.70
2018-06-07T10:57:42.470Z,24.70
2018-06-07T11:00:11.880Z,24.80
2018-06-07T11:02:41.114Z,24.90
2018-06-07T11:05:10.467Z,25.00
2018-06-07T11:07:39.983Z,25.10
2018-06-07T11:10:09.167Z,25.10
2018-06-07T11:12:38.647Z,25.30
2018-06-07T11:15:08.129Z,25.40
2018-06-07T11:17:37.456Z,25.50
2018-06-07T11:20:06.773Z,25.50
2018-06-07T11:22:36.276Z,25.50
2018-06-07T11:25:05.844Z,25.60
2018-06-07T11:27:35.001Z,25.60
2018-06-07T11:30:05.176Z,25.60
2018-06-07T11:32:34.392Z,25.70
2018-06-07T11:35:03.581Z,25.80
2018-06-07T11:37:33.015Z,25.80
2018-06-07T11:40:02.643Z,25.70
2018-06-07T11:42:31.899Z,25.70
2018-06-07T11:45:01.113Z,25.70
2018-06-07T11:47:30.335Z,25.80
2018-06-07T11:50:01.915Z,25.80
2018-06-07T11:52:31.287Z,25.80
2018-06-07T11:55:00.506Z,25.90
2018-06-07T11:57:29.681Z,25.90
2018-06-07T11:59:58.995Z,26.00
2018-06-07T12:02:28.119Z,26.00
2018-06-07T12:04:57.246Z,25.90
2018-06-07T12:07:26.563Z,26.00
2018-06-07T12:09:55.921Z,26.00
2018-06-07T12:12:25.116Z,26.00
2018-06-07T12:14:54.637Z,26.00
2018-06-07T12:17:23.831Z,26.10
2018-06-07T12:19:52.959Z,26.10
2018-06-07T12:22:22.080Z,26.10
2018-06-07T12:24:51.472Z,26.20
2018-06-07T12:27:20.779Z,26.30
2018-06-07T12:29:49.982Z,26.10
2018-06-07T12:32:19.360Z,26.10
2018-06-07T12:34:49.109Z,26.20
2018-06-07T12:37:18.421Z,26.20
2018-06-07T12:39:47.744Z,26.30
2018-06-07T12:42:16.886Z,26.30
2018-06-07T12:44:45.979Z,26.40
2018-06-07T12:47:15.168Z,26.60
2018-06-07T12:49:44.576Z,26.60
2018-06-07T12:52:13.732Z,26.60
2018-06-07T12:54:42.849Z,26.60
2018-06-07T12:57:12.391Z,26.60
2018-06-07T12:59:41.665Z,26.80
2018-06-07T13:02:10.917Z,26.90
2018-06-07T13:04:40.263Z,26.90
2018-06-07T13:07:09.744Z,27.00
2018-06-07T13:09:38.847Z,27.00
2018-06-07T13:12:07.930Z,27.00
2018-06-07T13:14:37.008Z,27.10
2018-06-07T13:17:06.200Z,27.10
2018-06-07T13:19:35.317Z,27.00
2018-06-07T13:22:04.775Z,27.00
2018-06-07T13:24:34.140Z,27.10
2018-06-07T13:27:03.363Z,27.10
2018-06-07T13:29:32.654Z,27.30
2018-06-07T13:32:01.853Z,27.30
2018-06-07T13:34:31.346Z,27.20
2018-06-07T13:37:00.701Z,27.20
2018-06-07T13:39:30.513Z,27.20
2018-06-07T13:41:59.888Z,27.30
2018-06-07T13:44:29.229Z,27.40
2018-06-07T13:46:59.022Z,27.50
2018-06-07T13:49:28.833Z,27.60
2018-06-07T13:51:58.349Z,27.70
2018-06-07T13:54:28.274Z,27.60
2018-06-07T13:56:57.463Z,27.50
2018-06-07T13:59:26.624Z,27.40
2018-06-07T14:01:55.719Z,27.30
2018-06-07T14:04:24.982Z,27.20
2018-06-07T14:06:54.349Z,27.40
2018-06-07T14:09:23.684Z,27.50
2018-06-07T14:11:52.833Z,27.50
2018-06-07T14:14:22.019Z,27.60
2018-06-07T14:16:51.126Z,27.80
2018-06-07T14:19:20.289Z,27.80
2018-06-07T14:21:49.511Z,27.80
2018-06-07T14:24:18.636Z,27.80
2018-06-07T14:26:48.068Z,27.80
2018-06-07T14:29:17.394Z,27.80
2018-06-07T14:31:46.662Z,27.90
2018-06-07T14:34:16.071Z,28.00
2018-06-07T14:36:45.617Z,27.90
2018-06-07T14:39:15.010Z,27.70
2018-06-07T14:41:44.204Z,27.70
2018-06-07T14:44:13.728Z,27.80
2018-06-07T14:46:43.583Z,28.00
2018-06-07T14:49:13.322Z,27.90
2018-06-07T14:51:42.588Z,27.90
2018-06-07T14:54:12.176Z,28.00
2018-06-07T14:56:41.555Z,28.10
2018-06-07T14:59:10.843Z,28.20
2018-06-07T15:01:40.153Z,28.20
2018-06-07T15:04:09.341Z,28.10
2018-06-07T15:06:38.793Z,28.00
2018-06-07T15:09:08.695Z,28.10
2018-06-07T15:11:37.985Z,28.10
2018-06-07T15:14:07.346Z,28.20
2018-06-07T15:16:36.774Z,28.30
2018-06-07T15:19:05.963Z,28.40
2018-06-07T15:21:35.105Z,28.50
2018-06-07T15:24:04.476Z,28.50
2018-06-07T15:26:33.584Z,28.50
2018-06-07T15:29:02.783Z,28.50
2018-06-07T15:31:32.098Z,28.50
2018-06-07T15:34:01.332Z,28.50
2018-06-07T15:36:30.660Z,28.40
2018-06-07T15:39:00.020Z,28.40
2018-06-07T15:41:30.813Z,28.40
2018-06-07T15:44:00.152Z,28.40
2018-06-07T15:46:29.382Z,28.50
2018-06-07T15:48:58.579Z,28.50
2018-06-07T15:51:27.946Z,28.60
2018-06-07T15:53:57.930Z,28.70
2018-06-07T15:56:27.601Z,28.70
2018-06-07T15:58:56.997Z,28.60
2018-06-07T16:01:26.234Z,28.70
2018-06-07T16:03:55.547Z,28.70
2018-06-07T16:06:25.102Z,28.60
2018-06-07T16:08:55.297Z,28.60
2018-06-07T16:11:24.512Z,28.60
2018-06-07T16:13:53.953Z,28.60
2018-06-07T16:16:23.865Z,28.70
2018-06-07T16:18:53.377Z,28.70
2018-06-07T16:21:24.155Z,28.70
2018-06-07T16:23:53.390Z,28.50
2018-06-07T16:26:23.469Z,28.50
2018-06-07T16:28:52.913Z,28.50
2018-06-07T16:31:21.995Z,28.60
2018-06-07T16:33:51.170Z,28.70
2018-06-07T16:36:20.321Z,28.80
2018-06-07T16:38:49.448Z,28.70
2018-06-07T16:41:18.572Z,28.70
2018-06-07T16:43:47.772Z,28.70
2018-06-07T16:46:16.884Z,28.70
2018-06-07T16:48:46.606Z,28.70
2018-06-07T16:51:15.914Z,28.60
2018-06-07T16:53:45.129Z,28.60
2018-06-07T16:56:14.348Z,28.40
2018-06-07T16:58:43.928Z,28.40
2018-06-07T17:01:13.343Z,28.30
2018-06-07T17:03:42.943Z,28.20
2018-06-07T17:06:12.070Z,28.30
2018-06-07T17:08:41.387Z,28.30
2018-06-07T17:11:10.704Z,28.30
2018-06-07T17:13:39.938Z,28.30
2018-06-07T17:16:09.712Z,28.20
2018-06-07T17:18:38.936Z,28.20
2018-06-07T17:21:08.155Z,28.30
2018-06-07T17:23:37.395Z,28.20
2018-06-07T17:26:07.370Z,28.20
2018-06-07T17:28:36.838Z,28.20
2018-06-07T17:31:06.226Z,28.20
2018-06-07T17:33:35.674Z,28.10
2018-06-07T17:36:04.878Z,28.10
2018-06-07T17:38:34.008Z,27.90
2018-06-07T17:41:03.204Z,27.80
2018-06-07T17:43:32.329Z,27.80
2018-06-07T17:46:01.433Z,27.80
2018-06-07T17:48:31.045Z,27.80
2018-06-07T17:51:00.378Z,27.90
2018-06-07T17:53:29.887Z,28.20
2018-06-07T17:55:58.979Z,28.60
2018-06-07T17:58:28.085Z,28.90
2018-06-07T18:00:57.268Z,29.30
2018-06-07T18:03:27.372Z,29.50
2018-06-07T18:05:56.485Z,29.50
2018-06-07T18:08:25.618Z,29.50
2018-06-07T18:10:54.737Z,29.60
2018-06-07T18:13:24.142Z,29.70
2018-06-07T18:15:53.348Z,29.70
2018-06-07T18:18:22.644Z,29.60
2018-06-07T18:20:57.454Z,29.40
2018-06-07T18:23:26.772Z,29.30
2018-06-07T18:25:56.036Z,29.20
2018-06-07T18:28:25.212Z,28.90
2018-06-07T18:30:56.008Z,28.60
2018-06-07T18:33:25.242Z,28.30
2018-06-07T18:35:54.734Z,28.10
2018-06-07T18:38:25.017Z,27.70
2018-06-07T18:40:54.496Z,27.30
2018-06-07T18:43:24.021Z,27.00
2018-06-07T18:45:53.620Z,26.60
2018-06-07T18:48:23.224Z,26.40
2018-06-07T18:50:52.548Z,26.20
2018-06-07T18:53:22.096Z,26.10
2018-06-07T18:55:51.952Z,25.90
2018-06-07T18:58:21.656Z,25.80
2018-06-07T19:00:51.075Z,25.70
2018-06-07T19:03:20.776Z,25.50
2018-06-07T19:05:50.685Z,25.40
2018-06-07T19:08:20.081Z,25.20
2018-06-07T19:10:49.582Z,25.10
2018-06-07T19:13:24.017Z,25.00
2018-06-07T19:15:53.546Z,24.80
2018-06-07T19:18:23.147Z,24.70
2018-06-07T19:20:55.810Z,24.50
2018-06-07T19:23:25.183Z,24.50
2018-06-07T19:25:59.631Z,24.40
2018-06-07T19:28:28.947Z,24.20
2018-06-07T19:30:58.166Z,24.10
2018-06-07T19:33:33.544Z,24.10
2018-06-07T19:36:03.303Z,24.00
2018-06-07T19:38:32.941Z,23.90
2018-06-07T19:41:08.868Z,23.80
2018-06-07T19:43:38.129Z,23.70
2018-06-07T19:46:07.263Z,23.60
2018-06-07T19:48:36.681Z,23.40
2018-06-07T19:51:06.258Z,23.30
2018-06-07T19:53:35.395Z,23.30
2018-06-07T19:56:04.689Z,23.20
2018-06-07T19:58:34.175Z,23.10
2018-06-07T20:01:03.404Z,23.10
2018-06-07T20:03:32.779Z,23.00
2018-06-07T20:06:02.579Z,22.90
2018-06-07T20:08:32.217Z,22.90
2018-06-07T20:11:01.515Z,22.80
2018-06-07T20:13:30.865Z,22.70
2018-06-07T20:16:00.194Z,22.70
2018-06-07T20:18:29.334Z,22.60
2018-06-07T20:20:58.492Z,22.60
2018-06-07T20:23:27.597Z,22.50
2018-06-07T20:25:56.695Z,22.40
2018-06-07T20:28:25.797Z,22.30
2018-06-07T20:30:54.914Z,22.20
2018-06-07T20:33:24.049Z,22.20
2018-06-07T20:35:53.136Z,22.20
2018-06-07T20:38:22.313Z,22.10
2018-06-07T20:40:51.449Z,22.00
2018-06-07T20:43:20.606Z,21.90
2018-06-07T20:45:49.987Z,21.80
2018-06-07T20:48:19.477Z,21.80
2018-06-07T20:50:48.632Z,21.70
2018-06-07T20:53:17.749Z,21.70
2018-06-07T20:55:46.957Z,21.60
2018-06-07T20:58:16.045Z,21.60
2018-06-07T21:00:45.149Z,21.60
2018-06-07T21:03:14.298Z,21.50
2018-06-07T21:05:43.476Z,21.50
2018-06-07T21:08:12.600Z,21.40
2018-06-07T21:10:41.928Z,21.40
2018-06-07T21:13:11.073Z,21.40
2018-06-07T21:15:40.317Z,21.30
2018-06-07T21:18:09.475Z,21.30
2018-06-07T21:20:38.600Z,21.20
2018-06-07T21:23:07.728Z,21.10
2018-06-07T21:25:36.940Z,21.00
2018-06-07T21:28:06.098Z,21.00
2018-06-07T21:30:35.213Z,20.90
2018-06-07T21:33:04.573Z,20.90
2018-06-07T21:35:40.343Z,20.90
2018-06-07T21:38:09.443Z,20.70
2018-06-07T21:40:38.643Z,20.70
2018-06-07T21:43:07.765Z,20.60
2018-06-07T21:45:36.865Z,20.60
2018-06-07T21:48:06.068Z,20.60
2018-06-07T21:50:36.735Z,20.50
2018-06-07T21:53:07.410Z,20.40
2018-06-07T21:55:36.691Z,20.30
2018-06-07T21:58:06.176Z,20.30
2018-06-07T22:00:37.567Z,20.20
2018-06-07T22:03:07.268Z,20.20
2018-06-07T22:05:36.380Z,20.20
2018-06-07T22:08:06.790Z,20.10
2018-06-07T22:10:36.332Z,20.00
2018-06-07T22:13:05.647Z,20.10
2018-06-07T22:15:34.770Z,20.00
2018-06-07T22:18:04.621Z,20.00
2018-06-07T22:20:33.851Z,20.00
2018-06-07T22:23:03.168Z,20.00
2018-06-07T22:25:32.337Z,19.90
2018-06-07T22:28:01.473Z,19.90
2018-06-07T22:30:30.626Z,19.90
2018-06-07T22:33:00.020Z,19.90
2018-06-07T22:35:29.273Z,19.90
2018-06-07T22:37:58.520Z,19.80
2018-06-07T22:40:27.972Z,19.90
2018-06-07T22:42:59.165Z,19.80
2018-06-07T22:45:28.374Z,19.80
2018-06-07T22:47:57.960Z,19.70
2018-06-07T22:50:27.409Z,19.70
2018-06-07T22:53:01.670Z,19.60
2018-06-07T22:55:31.777Z,19.60
2018-06-07T22:58:01.009Z,19.70
2018-06-07T23:00:30.112Z,19.70
2018-06-07T23:02:59.305Z,19.70
2018-06-07T23:05:28.935Z,19.60
2018-06-07T23:07:58.660Z,19.70
2018-06-07T23:10:28.296Z,19.60
2018-06-07T23:12:57.449Z,19.50
2018-06-07T23:15:26.657Z,19.50
2018-06-07T23:17:56.053Z,19.40
2018-06-07T23:20:25.143Z,19.40
2018-06-07T23:22:54.230Z,19.30
2018-06-07T23:25:23.996Z,19.20
2018-06-07T23:30:22.115Z,19.00
2018-06-07T23:32:52.977Z,18.90
2018-06-07T23:35:22.075Z,18.90
2018-06-07T23:37:51.208Z,18.90
2018-06-07T23:40:20.291Z,18.80
2018-06-07T23:42:49.371Z,18.80
2018-06-07T23:45:18.495Z,18.80
2018-06-07T23:47:47.627Z,18.80
2018-06-07T23:50:16.783Z,18.80
2018-06-07T23:52:45.915Z,18.80
2018-06-07T23:55:15.016Z,18.70
2018-06-07T23:57:44.195Z,18.70
